createdAt,value
2016-10-31T00:00:12.705Z,89
2016-10-31T00:01:12.662Z,88.62
2016-10-31T00:02:12.624Z,89
2016-10-31T00:03:12.585Z,88.81
2016-10-31T00:04:12.551Z,88.9
2016-10-31T00:05:12.205Z,89.38
2016-10-31T00:06:12.171Z,89
2016-10-31T00:07:12.435Z,89
2016-10-31T00:08:12.089Z,89.38
2016-10-31T00:09:12.352Z,89.47
2016-10-31T00:10:12.314Z,89.28
2016-10-31T00:11:12.275Z,89.38
2016-10-31T00:12:11.971Z,89.38
2016-10-31T00:13:12.200Z,89.38
2016-10-31T00:14:11.859Z,89.38
2016-10-31T00:15:12.154Z,89.38
2016-10-31T00:16:12.082Z,89.28
2016-10-31T00:17:12.045Z,89.62
2016-10-31T00:18:12.003Z,89.24
2016-10-31T00:19:11.965Z,90
2016-10-31T00:20:11.927Z,89.95
2016-10-31T00:21:11.884Z,89.38
2016-10-31T00:22:11.846Z,90
2016-10-31T00:23:11.806Z,90
2016-10-31T00:24:11.770Z,89.62
2016-10-31T00:25:11.728Z,89.53
2016-10-31T00:26:11.700Z,89.53
2016-10-31T00:27:11.659Z,90.19
2016-10-31T00:28:11.310Z,90.09
2016-10-31T00:29:11.571Z,90.09
2016-10-31T00:30:11.536Z,90.09
2016-10-31T00:31:11.196Z,90.38
2016-10-31T00:32:11.457Z,90.19
2016-10-31T00:33:11.421Z,90.09
2016-10-31T00:34:11.377Z,90.09
2016-10-31T00:35:11.346Z,90.38
2016-10-31T00:36:11.000Z,90.09
2016-10-31T00:37:11.264Z,90.28
2016-10-31T00:38:11.223Z,90
2016-10-31T00:39:11.186Z,90.28
2016-10-31T00:40:11.146Z,90.09
2016-10-31T00:41:11.105Z,90.57
2016-10-31T00:42:11.063Z,90.38
2016-10-31T00:43:11.025Z,90.38
2016-10-31T00:44:10.987Z,90.66
2016-10-31T00:45:10.950Z,90.57
2016-10-31T00:46:10.915Z,90.57
2016-10-31T00:47:10.870Z,90.28
2016-10-31T00:48:10.831Z,90.19
2016-10-31T00:49:10.488Z,90.19
2016-10-31T00:50:10.451Z,90.28
2016-10-31T00:51:10.715Z,90.38
2016-10-31T00:52:10.372Z,90.28
2016-10-31T00:53:10.636Z,90.38
2016-10-31T00:54:10.294Z,90.95
2016-10-31T00:55:10.257Z,90.95
2016-10-31T00:56:10.518Z,90.95
2016-10-31T00:57:10.175Z,90.85
2016-10-31T00:58:10.439Z,90.47
2016-10-31T00:59:10.410Z,90.66
2016-10-31T01:00:10.359Z,90.38
2016-10-31T01:01:10.317Z,90.47
2016-10-31T01:02:10.284Z,90.76
2016-10-31T01:03:10.249Z,90.66
2016-10-31T01:04:10.201Z,90.47
2016-10-31T01:05:09.862Z,90.95
2016-10-31T01:06:10.126Z,90.95
2016-10-31T01:07:10.086Z,90.95
2016-10-31T01:08:10.059Z,90.57
2016-10-31T01:09:10.009Z,90.76
2016-10-31T01:10:09.972Z,90.66
2016-10-31T01:11:09.931Z,90.47
2016-10-31T01:12:09.893Z,90.85
2016-10-31T01:13:09.859Z,90.76
2016-10-31T01:14:09.813Z,90.95
2016-10-31T01:15:09.775Z,90.66
2016-10-31T01:16:09.736Z,90.66
2016-10-31T01:17:09.395Z,90.85
2016-10-31T01:18:09.654Z,90.47
2016-10-31T01:19:09.615Z,90.76
2016-10-31T01:20:09.578Z,90.57
2016-10-31T01:21:09.539Z,90.95
2016-10-31T01:22:09.499Z,90.66
2016-10-31T01:23:09.162Z,90.66
2016-10-31T01:24:09.120Z,90.85
2016-10-31T01:25:09.381Z,90.47
2016-10-31T01:26:09.345Z,90.38
2016-10-31T01:27:09.304Z,90.47
2016-10-31T01:28:09.265Z,90.28
2016-10-31T01:29:09.226Z,90.38
2016-10-31T01:30:09.191Z,90.66
2016-10-31T01:31:09.150Z,90.57
2016-10-31T01:32:09.107Z,90.28
2016-10-31T01:33:09.070Z,90.57
2016-10-31T01:34:08.729Z,90.38
2016-10-31T01:35:08.989Z,90.57
2016-10-31T01:36:08.647Z,90.57
2016-10-31T01:37:08.608Z,90.95
2016-10-31T01:38:08.880Z,90.47
2016-10-31T01:39:08.834Z,90.66
2016-10-31T01:40:08.489Z,90.38
2016-10-31T01:41:08.756Z,90.57
2016-10-31T01:42:08.712Z,90.57
2016-10-31T01:43:08.675Z,90.85
2016-10-31T01:44:08.635Z,90.76
2016-10-31T01:45:08.599Z,90.95
2016-10-31T01:46:08.562Z,90.95
2016-10-31T01:47:08.214Z,90.95
2016-10-31T01:48:08.479Z,90.76
2016-10-31T01:49:08.442Z,90.47
2016-10-31T01:50:08.401Z,90.85
2016-10-31T01:51:08.361Z,91.04
2016-10-31T01:52:08.320Z,90.66
2016-10-31T01:53:08.283Z,90.95
2016-10-31T01:54:08.247Z,90.85
2016-10-31T01:55:08.205Z,90.38
2016-10-31T01:56:08.165Z,90.43
2016-10-31T01:57:07.825Z,90.71
2016-10-31T01:58:08.085Z,90.81
2016-10-31T01:59:08.042Z,90.71
2016-10-31T02:00:08.004Z,90.9
2016-10-31T02:01:07.968Z,90.9
2016-10-31T02:02:07.927Z,90.81
2016-10-31T02:03:07.586Z,90.9
2016-10-31T02:04:07.848Z,91.09
2016-10-31T02:05:07.811Z,90.81
2016-10-31T02:06:07.772Z,90.9
2016-10-31T02:07:07.730Z,91.75
2016-10-31T02:08:07.387Z,91.75
2016-10-31T02:09:07.652Z,91.38
2016-10-31T02:10:07.609Z,91.56
2016-10-31T02:11:07.572Z,91.56
2016-10-31T02:12:07.230Z,91.66
2016-10-31T02:13:07.493Z,91.75
2016-10-31T02:14:07.184Z,92.14
2016-10-31T02:15:07.414Z,92.23
2016-10-31T02:16:07.377Z,92.33
2016-10-31T02:17:07.332Z,91.94
2016-10-31T02:18:07.293Z,92.33
2016-10-31T02:19:07.256Z,92.14
2016-10-31T02:20:07.214Z,91.75
2016-10-31T02:21:07.173Z,92.14
2016-10-31T02:22:07.174Z,92.18
2016-10-31T02:23:07.097Z,92.76
2016-10-31T02:24:07.057Z,92.94
2016-10-31T02:25:07.014Z,93.04
2016-10-31T02:26:06.975Z,93.04
2016-10-31T02:27:06.936Z,92.76
2016-10-31T02:28:06.899Z,92.94
2016-10-31T02:29:06.857Z,92.57
2016-10-31T02:30:06.516Z,92.66
2016-10-31T02:31:06.785Z,92.57
2016-10-31T02:32:06.740Z,92.76
2016-10-31T02:33:06.698Z,92.76
2016-10-31T02:34:06.360Z,92.85
2016-10-31T02:35:06.620Z,93.04
2016-10-31T02:36:06.587Z,92.76
2016-10-31T02:37:06.238Z,92.76
2016-10-31T02:38:06.203Z,92.57
2016-10-31T02:39:06.504Z,92.85
2016-10-31T02:40:06.120Z,93.13
2016-10-31T02:41:06.384Z,93.32
2016-10-31T02:42:06.346Z,93.32
2016-10-31T02:43:06.306Z,93.61
2016-10-31T02:44:06.264Z,93.8
2016-10-31T02:45:06.236Z,94.27
2016-10-31T02:46:06.194Z,94.08
2016-10-31T02:47:06.148Z,94.08
2016-10-31T02:48:05.804Z,93.99
2016-10-31T02:49:05.764Z,94.08
2016-10-31T02:50:06.028Z,94.08
2016-10-31T02:51:05.986Z,93.8
2016-10-31T02:52:05.946Z,94.18
2016-10-31T02:53:05.907Z,93.99
2016-10-31T02:54:05.867Z,94.37
2016-10-31T02:55:05.863Z,94.37
2016-10-31T02:56:05.790Z,94.08
2016-10-31T02:57:05.747Z,94.18
2016-10-31T02:58:05.709Z,94.56
2016-10-31T02:59:05.666Z,94.18
2016-10-31T03:00:05.630Z,94.13
2016-10-31T03:01:05.288Z,94.23
2016-10-31T03:02:05.248Z,94.32
2016-10-31T03:03:05.508Z,94.23
2016-10-31T03:04:05.470Z,93.84
2016-10-31T03:05:05.125Z,94.13
2016-10-31T03:06:05.390Z,93.94
2016-10-31T03:07:05.353Z,94.04
2016-10-31T03:08:05.309Z,94.13
2016-10-31T03:09:05.269Z,94.23
2016-10-31T03:10:05.235Z,94.04
2016-10-31T03:11:05.188Z,94.23
2016-10-31T03:12:05.147Z,93.75
2016-10-31T03:13:05.114Z,94.23
2016-10-31T03:14:05.071Z,94.51
2016-10-31T03:15:05.029Z,94.42
2016-10-31T03:16:04.991Z,94.32
2016-10-31T03:17:04.949Z,94.7
2016-10-31T03:18:04.607Z,94.89
2016-10-31T03:19:04.870Z,94.7
2016-10-31T03:20:04.827Z,94.51
2016-10-31T03:21:04.792Z,94.6
2016-10-31T03:22:04.754Z,94.7
2016-10-31T03:23:04.408Z,94.79
2016-10-31T03:24:04.671Z,94.42
2016-10-31T03:25:04.666Z,94.6
2016-10-31T03:26:04.588Z,94.42
2016-10-31T03:27:04.607Z,94.51
2016-10-31T03:28:04.508Z,94.51
2016-10-31T03:29:04.468Z,94.51
2016-10-31T03:30:04.435Z,94.89
2016-10-31T03:31:04.387Z,94.79
2016-10-31T03:32:04.354Z,94.79
2016-10-31T03:33:04.009Z,94.89
2016-10-31T03:34:04.268Z,94.98
2016-10-31T03:35:04.231Z,94.89
2016-10-31T03:36:03.886Z,94.89
2016-10-31T03:37:04.147Z,94.79
2016-10-31T03:38:04.109Z,95.26
2016-10-31T03:39:03.766Z,95.45
2016-10-31T03:40:04.029Z,95.26
2016-10-31T03:41:03.988Z,95.26
2016-10-31T03:42:03.944Z,95.26
2016-10-31T03:43:03.910Z,95.26
2016-10-31T03:44:03.870Z,95.07
2016-10-31T03:45:03.825Z,95.26
2016-10-31T03:46:03.784Z,95.26
2016-10-31T03:47:03.747Z,95.36
2016-10-31T03:48:03.706Z,95.07
2016-10-31T03:49:03.664Z,95.07
2016-10-31T03:50:03.328Z,95.26
2016-10-31T03:51:03.587Z,95.65
2016-10-31T03:52:03.246Z,95.65
2016-10-31T03:53:03.504Z,95.07
2016-10-31T03:54:03.468Z,95.84
2016-10-31T03:55:03.427Z,95.93
2016-10-31T03:56:03.386Z,95.84
2016-10-31T03:57:03.349Z,95.26
2016-10-31T03:58:03.308Z,95.74
2016-10-31T03:59:03.267Z,95.45
2016-10-31T04:00:03.227Z,95.84
2016-10-31T04:01:03.182Z,95.84
2016-10-31T04:02:03.144Z,95.84
2016-10-31T04:03:02.803Z,95.74
2016-10-31T04:04:03.065Z,95.45
2016-10-31T04:05:02.723Z,95.45
2016-10-31T04:06:02.980Z,95.45
2016-10-31T04:07:02.946Z,95.65
2016-10-31T04:08:02.902Z,95.65
2016-10-31T04:09:02.862Z,95.74
2016-10-31T04:10:02.821Z,95.45
2016-10-31T04:11:02.781Z,96.03
2016-10-31T04:12:02.754Z,95.84
2016-10-31T04:13:02.703Z,95.55
2016-10-31T04:14:02.663Z,95.84
2016-10-31T04:15:02.629Z,95.45
2016-10-31T04:16:02.580Z,95.45
2016-10-31T04:17:02.545Z,95.36
2016-10-31T04:18:02.508Z,95.84
2016-10-31T04:19:02.463Z,95.84
2016-10-31T04:20:02.419Z,95.55
2016-10-31T04:21:02.378Z,96.12
2016-10-31T04:22:02.035Z,96.31
2016-10-31T04:23:02.300Z,96.59
2016-10-31T04:24:02.260Z,95.84
2016-10-31T04:25:02.219Z,96.12
2016-10-31T04:26:02.180Z,95.93
2016-10-31T04:27:01.835Z,95.93
2016-10-31T04:28:01.832Z,95.74
2016-10-31T04:29:02.059Z,96.59
2016-10-31T04:30:02.018Z,96.03
2016-10-31T04:31:01.975Z,96.31
2016-10-31T04:32:01.939Z,96.5
2016-10-31T04:33:01.894Z,96.03
2016-10-31T04:34:01.858Z,96.03
2016-10-31T04:35:01.513Z,96.22
2016-10-31T04:36:01.772Z,96.12
2016-10-31T04:37:01.737Z,96.22
2016-10-31T04:38:01.393Z,96.12
2016-10-31T04:39:01.655Z,96.22
2016-10-31T04:40:01.615Z,96.03
2016-10-31T04:41:01.574Z,96.22
2016-10-31T04:42:01.533Z,96.12
2016-10-31T04:43:01.494Z,96.12
2016-10-31T04:44:01.450Z,96.41
2016-10-31T04:45:01.108Z,96.69
2016-10-31T04:46:01.381Z,96.31
2016-10-31T04:47:01.332Z,96.22
2016-10-31T04:48:01.298Z,96.5
2016-10-31T04:49:01.251Z,96.69
2016-10-31T04:50:01.209Z,96.69
2016-10-31T04:51:01.168Z,96.12
2016-10-31T04:52:01.130Z,96.22
2016-10-31T04:53:01.090Z,96.12
2016-10-31T04:54:01.081Z,96.12
2016-10-31T04:55:01.012Z,96.31
2016-10-31T04:56:00.968Z,96.31
2016-10-31T04:57:00.925Z,96.31
2016-10-31T04:58:00.886Z,96.41
2016-10-31T04:59:00.853Z,96.5
2016-10-31T05:00:00.807Z,96.12
2016-10-31T05:01:00.766Z,96.69
2016-10-31T05:02:00.728Z,96.69
2016-10-31T05:03:00.384Z,96.41
2016-10-31T05:04:00.643Z,96.41
2016-10-31T05:05:00.607Z,96.22
2016-10-31T05:06:00.566Z,96.26
2016-10-31T05:07:00.531Z,96.31
2016-10-31T05:08:00.483Z,96.22
2016-10-31T05:09:00.442Z,96.22
2016-10-31T05:10:00.404Z,96.31
2016-10-31T05:11:00.361Z,96.31
2016-10-31T05:12:00.022Z,96.22
2016-10-31T05:13:00.284Z,96.41
2016-10-31T05:14:00.243Z,96.5
2016-10-31T05:15:00.200Z,96.59
2016-10-31T05:16:00.160Z,96.78
2016-10-31T05:17:00.121Z,96.5
2016-10-31T05:18:00.079Z,96.5
2016-10-31T05:19:00.039Z,96.59
2016-10-31T05:19:59.998Z,96.5
2016-10-31T05:20:59.961Z,96.45
2016-10-31T05:21:59.615Z,96.5
2016-10-31T05:22:59.573Z,96.83
2016-10-31T05:23:59.840Z,96.59
2016-10-31T05:24:59.796Z,96.55
2016-10-31T05:25:59.756Z,96.69
2016-10-31T05:26:59.716Z,96.78
2016-10-31T05:27:59.376Z,96.88
2016-10-31T05:28:59.334Z,97.16
2016-10-31T05:29:59.596Z,97.07
2016-10-31T05:30:59.554Z,97.07
2016-10-31T05:31:59.516Z,97.35
2016-10-31T05:32:59.475Z,97.35
2016-10-31T05:33:59.131Z,97.68
2016-10-31T05:34:59.391Z,97.59
2016-10-31T05:35:59.398Z,97.54
2016-10-31T05:36:59.313Z,97.59
2016-10-31T05:37:59.281Z,97.26
2016-10-31T05:38:59.232Z,97.16
2016-10-31T05:39:58.889Z,97.83
2016-10-31T05:40:59.157Z,97.07
2016-10-31T05:41:59.112Z,97.07
2016-10-31T05:42:59.071Z,96.88
2016-10-31T05:43:59.028Z,97.11
2016-10-31T05:44:58.991Z,96.97
2016-10-31T05:45:58.947Z,96.88
2016-10-31T05:46:58.906Z,97.16
2016-10-31T05:47:58.870Z,97.07
2016-10-31T05:48:58.825Z,96.97
2016-10-31T05:49:58.787Z,97.07
2016-10-31T05:50:58.748Z,97.11
2016-10-31T05:51:58.725Z,96.83
2016-10-31T05:52:58.664Z,97.07
2016-10-31T05:53:58.630Z,97.59
2016-10-31T05:54:58.582Z,97.07
2016-10-31T05:55:58.545Z,97.11
2016-10-31T05:56:58.510Z,97.16
2016-10-31T05:57:58.465Z,96.83
2016-10-31T05:58:58.424Z,97.02
2016-10-31T05:59:58.382Z,97.21
2016-10-31T06:00:58.340Z,97.11
2016-10-31T06:01:58.301Z,97.07
2016-10-31T06:02:58.264Z,97.11
2016-10-31T06:03:58.218Z,96.97
2016-10-31T06:04:58.182Z,96.92
2016-10-31T06:05:57.836Z,97.45
2016-10-31T06:06:58.099Z,97.4
2016-10-31T06:07:58.061Z,97.35
2016-10-31T06:08:58.021Z,97.35
2016-10-31T06:09:57.978Z,97.92
2016-10-31T06:10:57.936Z,97.83
2016-10-31T06:11:57.902Z,97.45
2016-10-31T06:12:57.858Z,97.78
2016-10-31T06:13:57.817Z,97.45
2016-10-31T06:14:57.782Z,97.54
2016-10-31T06:15:57.736Z,97.35
2016-10-31T06:16:57.694Z,97.45
2016-10-31T06:17:57.655Z,97.64
2016-10-31T06:18:57.613Z,97.54
2016-10-31T06:19:57.270Z,97.83
2016-10-31T06:20:57.533Z,97.83
2016-10-31T06:21:57.503Z,98.11
2016-10-31T06:22:57.152Z,98.21
2016-10-31T06:23:57.413Z,98.02
2016-10-31T06:24:57.068Z,98.3
2016-10-31T06:25:57.332Z,98.58
2016-10-31T06:26:57.319Z,98.21
2016-10-31T06:27:57.260Z,98.3
2016-10-31T06:28:57.218Z,98.68
2016-10-31T06:29:57.171Z,98.96
2016-10-31T06:30:57.129Z,98.21
2016-10-31T06:31:57.089Z,98.39
2016-10-31T06:32:57.051Z,98.68
2016-10-31T06:33:57.009Z,98.68
2016-10-31T06:34:56.988Z,98.58
2016-10-31T06:35:56.925Z,98.58
2016-10-31T06:36:56.887Z,98.49
2016-10-31T06:37:56.844Z,98.49
2016-10-31T06:38:56.501Z,98.58
2016-10-31T06:39:56.765Z,98.21
2016-10-31T06:40:56.732Z,98.58
2016-10-31T06:41:56.685Z,98.49
2016-10-31T06:42:56.642Z,98.58
2016-10-31T06:43:56.602Z,98.82
2016-10-31T06:44:56.564Z,98.73
2016-10-31T06:45:56.523Z,98.63
2016-10-31T06:46:56.178Z,98.44
2016-10-31T06:47:56.440Z,98.35
2016-10-31T06:48:56.399Z,98.16
2016-10-31T06:49:56.361Z,98.44
2016-10-31T06:50:56.321Z,98.44
2016-10-31T06:51:55.981Z,98.16
2016-10-31T06:52:56.240Z,97.97
2016-10-31T06:53:56.200Z,97.92
2016-10-31T06:54:56.159Z,97.59
2016-10-31T06:55:56.122Z,97.74
2016-10-31T06:56:56.079Z,97.83
2016-10-31T06:57:56.038Z,97.45
2016-10-31T06:58:56.002Z,97.36
2016-10-31T06:59:55.973Z,97.64
2016-10-31T07:00:55.928Z,97.64
2016-10-31T07:01:55.881Z,97.64
2016-10-31T07:02:55.844Z,97.22
2016-10-31T07:03:55.801Z,97.02
2016-10-31T07:04:55.774Z,96.36
2016-10-31T07:05:55.722Z,96.74
2016-10-31T07:06:55.686Z,95.98
2016-10-31T07:07:55.642Z,95.31
2016-10-31T07:08:55.604Z,95.89
2016-10-31T07:09:55.571Z,95.31
2016-10-31T07:10:55.528Z,94.84
2016-10-31T07:11:55.186Z,94.46
2016-10-31T07:12:55.449Z,94.46
2016-10-31T07:13:55.414Z,94.27
2016-10-31T07:14:55.371Z,94.03
2016-10-31T07:15:55.330Z,93.46
2016-10-31T07:16:55.297Z,93.46
2016-10-31T07:17:54.950Z,92.9
2016-10-31T07:18:54.913Z,92.04
2016-10-31T07:19:55.169Z,91.94
2016-10-31T07:20:55.134Z,91.66
2016-10-31T07:21:55.099Z,90.99
2016-10-31T07:22:55.056Z,90.99
2016-10-31T07:23:55.018Z,90.52
2016-10-31T07:24:54.982Z,90.37
2016-10-31T07:25:54.942Z,90.19
2016-10-31T07:26:54.900Z,89.52
2016-10-31T07:27:54.865Z,89.04
2016-10-31T07:28:54.825Z,88.19
2016-10-31T07:29:54.486Z,87.52
2016-10-31T07:30:54.748Z,87.71
2016-10-31T07:31:54.710Z,86.8
2016-10-31T07:32:54.674Z,86.33
2016-10-31T07:33:54.634Z,85.95
2016-10-31T07:34:54.596Z,84.38
2016-10-31T07:35:54.555Z,82.84
2016-10-31T07:36:54.519Z,81.51
2016-10-31T07:37:54.480Z,80.31
2016-10-31T07:38:54.441Z,79.11
2016-10-31T07:39:54.416Z,77.59
2016-10-31T07:40:54.372Z,76.01
2016-10-31T07:41:54.334Z,74.37
2016-10-31T07:42:54.294Z,74.08
2016-10-31T07:43:53.958Z,73.41
2016-10-31T07:44:54.224Z,71.88
2016-10-31T07:45:53.888Z,70.61
2016-10-31T07:46:54.151Z,69.12
2016-10-31T07:47:54.162Z,67.11
2016-10-31T07:48:53.781Z,65.84
2016-10-31T07:49:54.046Z,65.55
2016-10-31T07:50:53.712Z,66.13
2016-10-31T07:51:53.975Z,66.28
2016-10-31T07:52:53.640Z,66.38
2016-10-31T07:53:53.912Z,66.16
2016-10-31T07:54:53.880Z,65.33
2016-10-31T07:55:53.841Z,65.9
2016-10-31T07:56:53.812Z,65.87
2016-10-31T07:57:53.771Z,66.25
2016-10-31T07:58:53.736Z,66.54
2016-10-31T07:59:53.704Z,66.6
2016-10-31T08:00:53.666Z,66.99
2016-10-31T08:01:53.635Z,67.43
2016-10-31T08:02:53.602Z,67.43
2016-10-31T08:03:53.569Z,66.95
2016-10-31T08:04:53.231Z,66.95
2016-10-31T08:05:53.504Z,65.84
2016-10-31T08:06:53.467Z,64.82
2016-10-31T08:07:53.432Z,63
2016-10-31T08:08:53.405Z,60.06
2016-10-31T08:09:53.378Z,57.83
2016-10-31T08:10:53.377Z,54.72
2016-10-31T08:11:53.304Z,52.38
2016-10-31T08:12:53.272Z,50.23
2016-10-31T08:13:53.241Z,47.49
2016-10-31T08:14:53.203Z,45.51
2016-10-31T08:15:53.170Z,43.92
2016-10-31T08:16:53.147Z,41.82
2016-10-31T08:17:53.110Z,39.53
2016-10-31T08:18:53.083Z,38.31
2016-10-31T08:19:53.070Z,36.59
2016-10-31T08:20:53.027Z,35.74
2016-10-31T08:21:52.692Z,35.26
2016-10-31T08:22:52.969Z,35.74
2016-10-31T08:23:52.935Z,36.22
2016-10-31T08:24:52.904Z,35.74
2016-10-31T08:25:52.576Z,35.26
2016-10-31T08:26:52.858Z,34.29
2016-10-31T08:27:52.821Z,35.05
2016-10-31T08:28:52.791Z,35.61
2016-10-31T08:29:52.465Z,35.71
2016-10-31T08:30:52.743Z,35.69
2016-10-31T08:31:52.710Z,35.85
2016-10-31T08:32:52.685Z,36.51
2016-10-31T08:33:52.655Z,37.91
2016-10-31T08:34:52.630Z,38.95
2016-10-31T08:35:52.600Z,40.76
2016-10-31T08:36:52.267Z,40.95
2016-10-31T08:37:52.546Z,41.7
2016-10-31T08:38:52.517Z,42.18
2016-10-31T08:39:52.487Z,43.14
2016-10-31T08:40:52.459Z,43.31
2016-10-31T08:41:52.429Z,43.12
2016-10-31T08:42:52.401Z,43.1
2016-10-31T08:43:52.369Z,43.57
2016-10-31T08:44:52.344Z,44.51
2016-10-31T08:45:52.312Z,44.8
2016-10-31T08:46:51.981Z,45.09
2016-10-31T08:47:52.253Z,45.09
2016-10-31T08:48:52.225Z,44.9
2016-10-31T08:49:52.195Z,44.42
2016-10-31T08:50:52.163Z,42.81
2016-10-31T08:51:52.134Z,41.14
2016-10-31T08:52:52.108Z,40.49
2016-10-31T08:53:52.483Z,39.45
2016-10-31T08:54:51.745Z,40.03
2016-10-31T08:55:52.015Z,40.22
2016-10-31T08:56:51.989Z,40.39
2016-10-31T08:57:51.964Z,40.47
2016-10-31T08:58:51.931Z,41.5
2016-10-31T08:59:51.898Z,41.41
2016-10-31T09:00:51.870Z,41.77
2016-10-31T09:01:51.843Z,42.25
2016-10-31T09:02:51.824Z,43.38
2016-10-31T09:03:51.487Z,43.94
2016-10-31T09:04:51.460Z,44.8
2016-10-31T09:05:51.769Z,45.37
2016-10-31T09:06:51.691Z,45.74
2016-10-31T09:07:51.670Z,46.03
2016-10-31T09:08:51.329Z,45.64
2016-10-31T09:09:51.603Z,45.09
2016-10-31T09:10:51.573Z,44.8
2016-10-31T09:11:51.547Z,45.01
2016-10-31T09:12:51.510Z,43.84
2016-10-31T09:13:51.485Z,42.61
2016-10-31T09:14:51.456Z,41.99
2016-10-31T09:15:51.423Z,39.51
2016-10-31T09:16:51.393Z,38.47
2016-10-31T09:17:51.359Z,38.01
2016-10-31T09:18:51.333Z,37.16
2016-10-31T09:19:51.304Z,36.58
2016-10-31T09:20:51.272Z,36.77
2016-10-31T09:21:51.247Z,35.93
2016-10-31T09:22:51.218Z,35.65
2016-10-31T09:23:51.185Z,35.85
2016-10-31T09:24:51.161Z,35.56
2016-10-31T09:25:51.136Z,35.75
2016-10-31T09:26:51.106Z,35.27
2016-10-31T09:27:51.074Z,34.22
2016-10-31T09:28:51.041Z,34.14
2016-10-31T09:29:51.015Z,33.95
2016-10-31T09:30:50.990Z,34.14
2016-10-31T09:31:50.960Z,33.76
2016-10-31T09:32:50.930Z,34.53
2016-10-31T09:33:50.902Z,34.24
2016-10-31T09:34:50.875Z,34.05
2016-10-31T09:35:50.547Z,33.57
2016-10-31T09:36:50.520Z,33
2016-10-31T09:37:50.794Z,32.15
2016-10-31T09:38:50.763Z,31.22
2016-10-31T09:39:50.438Z,29.78
2016-10-31T09:40:50.723Z,29.22
2016-10-31T09:41:50.687Z,29.13
2016-10-31T09:42:50.660Z,28.55
2016-10-31T09:43:50.633Z,28.92
2016-10-31T09:44:50.606Z,29.78
2016-10-31T09:45:50.582Z,29.1
2016-10-31T09:46:50.254Z,29.28
2016-10-31T09:47:50.531Z,29.28
2016-10-31T09:48:50.500Z,29.97
2016-10-31T09:49:50.476Z,31.12
2016-10-31T09:50:50.453Z,31.59
2016-10-31T09:51:50.436Z,32.15
2016-10-31T09:52:50.097Z,33
2016-10-31T09:53:50.368Z,33.18
2016-10-31T09:54:50.345Z,32.97
2016-10-31T09:55:50.328Z,33.37
2016-10-31T09:56:50.287Z,33.45
2016-10-31T09:57:50.262Z,33.84
2016-10-31T09:58:49.933Z,34.4
2016-10-31T09:59:50.207Z,34.21
2016-10-31T10:00:50.182Z,34.88
2016-10-31T10:01:50.153Z,36.21
2016-10-31T10:02:49.823Z,37.34
2016-10-31T10:03:50.099Z,38.37
2016-10-31T10:04:50.071Z,39.58
2016-10-31T10:05:50.043Z,40.25
2016-10-31T10:06:50.015Z,41.58
2016-10-31T10:07:49.693Z,41.67
2016-10-31T10:08:49.959Z,42.9
2016-10-31T10:09:49.930Z,43.36
2016-10-31T10:10:49.921Z,44.13
2016-10-31T10:11:49.872Z,44.7
2016-10-31T10:12:49.840Z,45.16
2016-10-31T10:13:49.812Z,45.83
2016-10-31T10:14:49.779Z,47.34
2016-10-31T10:15:49.757Z,47.8
2016-10-31T10:16:49.721Z,48.28
2016-10-31T10:17:49.693Z,48.73
2016-10-31T10:18:49.756Z,49.69
2016-10-31T10:19:49.630Z,50.26
2016-10-31T10:20:49.602Z,50.81
2016-10-31T10:21:49.592Z,51.39
2016-10-31T10:22:49.234Z,51.46
2016-10-31T10:23:49.504Z,52.03
2016-10-31T10:24:49.472Z,52.8
2016-10-31T10:25:49.443Z,52.99
2016-10-31T10:26:49.408Z,51.75
2016-10-31T10:27:49.381Z,50.24
2016-10-31T10:28:49.344Z,47.51
2016-10-31T10:29:49.316Z,45.28
2016-10-31T10:30:49.281Z,43.12
2016-10-31T10:31:49.252Z,41.53
2016-10-31T10:32:49.220Z,39.91
2016-10-31T10:33:49.197Z,38.6
2016-10-31T10:34:49.157Z,37.76
2016-10-31T10:35:48.827Z,36.99
2016-10-31T10:36:48.796Z,36.91
2016-10-31T10:37:49.076Z,36.71
2016-10-31T10:38:49.046Z,36.81
2016-10-31T10:39:49.020Z,37.08
2016-10-31T10:40:48.995Z,37.08
2016-10-31T10:41:48.954Z,36.89
2016-10-31T10:42:48.922Z,36.69
2016-10-31T10:43:48.892Z,36.71
2016-10-31T10:44:48.869Z,36.52
2016-10-31T10:45:48.835Z,35.94
2016-10-31T10:46:48.809Z,35.56
2016-10-31T10:47:48.781Z,35.1
2016-10-31T10:48:48.755Z,34.32
2016-10-31T10:49:48.726Z,34.05
2016-10-31T10:50:48.695Z,33.87
2016-10-31T10:51:48.678Z,33.29
2016-10-31T10:52:48.643Z,32.92
2016-10-31T10:53:48.317Z,32.65
2016-10-31T10:54:48.587Z,32.07
2016-10-31T10:55:48.563Z,31.96
2016-10-31T10:56:48.535Z,31.67
2016-10-31T10:57:48.514Z,31.38
2016-10-31T10:58:48.482Z,31.94
2016-10-31T10:59:48.456Z,32.51
2016-10-31T11:00:48.432Z,33.07
2016-10-31T11:01:48.099Z,33.74
2016-10-31T11:02:48.380Z,34.96
2016-10-31T11:03:48.351Z,36.19
2016-10-31T11:04:48.021Z,37.24
2016-10-31T11:05:48.294Z,38.28
2016-10-31T11:06:48.267Z,39.03
2016-10-31T11:07:48.237Z,38.85
2016-10-31T11:08:48.212Z,39.12
2016-10-31T11:09:48.185Z,39.99
2016-10-31T11:10:48.156Z,40.35
2016-10-31T11:11:48.125Z,41.12
2016-10-31T11:12:48.099Z,41.49
2016-10-31T11:13:48.071Z,42.43
2016-10-31T11:14:48.041Z,43.19
2016-10-31T11:15:48.020Z,44.03
2016-10-31T11:16:47.987Z,44.51
2016-10-31T11:17:47.954Z,44.87
2016-10-31T11:18:47.926Z,45.93
2016-10-31T11:19:47.898Z,45.74
2016-10-31T11:20:47.863Z,46.89
2016-10-31T11:21:47.837Z,46.98
2016-10-31T11:22:47.806Z,46.98
2016-10-31T11:23:47.777Z,47.56
2016-10-31T11:24:47.746Z,47.46
2016-10-31T11:25:47.717Z,47.75
2016-10-31T11:26:47.685Z,48.11
2016-10-31T11:27:47.655Z,48.3
2016-10-31T11:28:47.325Z,48.4
2016-10-31T11:29:47.595Z,48.78
2016-10-31T11:30:47.569Z,49.62
2016-10-31T11:31:47.541Z,50.1
2016-10-31T11:32:47.502Z,50.2
2016-10-31T11:33:47.469Z,50.58
2016-10-31T11:34:47.440Z,50.67
2016-10-31T11:35:47.407Z,51.32
2016-10-31T11:36:47.376Z,51.61
2016-10-31T11:37:47.345Z,52.18
2016-10-31T11:38:47.012Z,52.06
2016-10-31T11:39:47.283Z,52.63
2016-10-31T11:40:47.249Z,53.08
2016-10-31T11:41:47.223Z,53.78
2016-10-31T11:42:47.186Z,54.36
2016-10-31T11:43:47.156Z,54.33
2016-10-31T11:44:47.124Z,54.43
2016-10-31T11:45:47.092Z,54.43
2016-10-31T11:46:47.066Z,54.61
2016-10-31T11:47:47.027Z,55.38
2016-10-31T11:48:46.994Z,55.45
2016-10-31T11:49:46.658Z,56.02
2016-10-31T11:50:46.926Z,56.4
2016-10-31T11:51:46.900Z,56.69
2016-10-31T11:52:46.866Z,57.55
2016-10-31T11:53:46.828Z,57.75
2016-10-31T11:54:46.801Z,57.9
2016-10-31T11:55:46.769Z,57.9
2016-10-31T11:56:46.768Z,58.1
2016-10-31T11:57:46.396Z,58.58
2016-10-31T11:58:46.667Z,58.58
2016-10-31T11:59:46.634Z,58.8
2016-10-31T12:00:46.596Z,58.8
2016-10-31T12:01:46.564Z,58.89
2016-10-31T12:02:46.543Z,58.61
2016-10-31T12:03:46.497Z,58.41
2016-10-31T12:04:46.160Z,58.48
2016-10-31T12:05:46.430Z,58.41
2016-10-31T12:06:46.403Z,58.89
2016-10-31T12:07:46.364Z,58.51
2016-10-31T12:08:46.332Z,58.61
2016-10-31T12:09:45.995Z,58.61
2016-10-31T12:10:46.264Z,58.73
2016-10-31T12:11:46.230Z,58.15
2016-10-31T12:12:46.195Z,57.87
2016-10-31T12:13:46.171Z,57.58
2016-10-31T12:14:46.130Z,58.25
2016-10-31T12:15:46.100Z,57.97
2016-10-31T12:16:46.063Z,57.97
2016-10-31T12:17:46.049Z,58.06
2016-10-31T12:18:45.997Z,58.51
2016-10-31T12:19:45.970Z,58.61
2016-10-31T12:20:45.931Z,59.08
2016-10-31T12:21:45.594Z,59.2
2016-10-31T12:22:45.862Z,59.49
2016-10-31T12:23:45.825Z,60.06
2016-10-31T12:24:45.792Z,59.3
2016-10-31T12:25:45.759Z,59.4
2016-10-31T12:26:45.424Z,59.27
2016-10-31T12:27:45.691Z,59.75
2016-10-31T12:28:45.659Z,59.66
2016-10-31T12:29:45.626Z,59.94
2016-10-31T12:30:45.592Z,59.75
2016-10-31T12:31:45.557Z,60.52
2016-10-31T12:32:45.523Z,60.71
2016-10-31T12:33:45.187Z,60.9
2016-10-31T12:34:45.459Z,60.71
2016-10-31T12:35:45.120Z,61.09
2016-10-31T12:36:45.389Z,61.38
2016-10-31T12:37:45.354Z,61.57
2016-10-31T12:38:45.321Z,62.04
2016-10-31T12:39:45.288Z,61.57
2016-10-31T12:40:45.251Z,61.28
2016-10-31T12:41:45.222Z,61.85
2016-10-31T12:42:45.186Z,62.14
2016-10-31T12:43:45.152Z,61.85
2016-10-31T12:44:45.119Z,61.95
2016-10-31T12:45:45.082Z,62.14
2016-10-31T12:46:45.050Z,62.14
2016-10-31T12:47:45.017Z,62.43
2016-10-31T12:48:44.683Z,62.24
2016-10-31T12:49:44.948Z,61.95
2016-10-31T12:50:44.621Z,62.04
2016-10-31T12:51:44.882Z,62.04
2016-10-31T12:52:44.847Z,62.24
2016-10-31T12:53:44.810Z,62.04
2016-10-31T12:54:44.777Z,61.85